Latest Coastal Weather Observations for Gabo Island (VIC)

IDN60701

Issued at 2:31 pm EST Sunday 2 August 2015 (issued every 10 minutes, with the page automatically refreshed every 10 minutes)

About coastal observations | Map of coastal stations | Coastal observations for NSW | Marine services | Other Formats
Station Details ID: 084016 Name: GABO ISLAND LIGHTHOUSE Lat: -37.57 Lon: 149.92 Height: 15.2 m
Data from the previous 72 hours. | See also: Recent months at Gabo Island (VIC)
Date/Time
EST
Temp

°C
Wind Pressure Rain
since 9am
mm
Weather Cloud Vis
km
Sea
Height
m
Swell
Dir
 
Speed
knots
Gust
knots
hPa Trend Height
m
Period
s
Dir
02/02:30pm 11.5 SW 9 12 1008.0 - 0.6 - - - - - - -
02/02:00pm 11.1 W 6 9 1007.7 - 0.6 - - - - - - -
02/01:30pm 10.3 W 8 9 1007.9 - 0.6 - - - - - - -
02/01:00pm 10.0 W 8 12 1008.3 - 0.6 - - - - - - -
02/12:30pm 10.1 W 12 15 1009.3 - 0.6 - - - - - - -
02/12:00pm 10.3 WSW 16 19 1009.5 - 0.6 - - - - - - -
02/11:30am 10.9 WSW 16 20 1009.9 - 0.6 - - - - - - -
02/11:00am 10.5 WSW 17 21 1010.2 - 0.6 - - - - - - -
02/10:30am 10.0 WSW 17 21 1010.7 - 0.4 - - - - - - -
02/10:00am 10.6 WSW 14 16 1010.5 - 0.4 - - - - - - -
02/09:30am 10.6 W 11 13 1010.9 - 0.4 - - - - - - -
02/09:00am 10.0 WSW 11 14 1011.1 - 1.4 Recent precip. Cloudy 15 <0.5 1.0 - -
02/08:30am 10.2 WSW 8 11 1011.5 - 1.0 - - - - - - -
02/08:00am 9.8 N 5 6 1011.4 - 1.0 - - - - - - -
02/07:30am 9.8 N 7 9 1011.4 - 1.0 - - - - - - -
02/07:00am 9.4 N 9 11 1011.6 - 1.0 - - - - - - -
02/06:30am 9.0 N 7 9 1011.9 - 0.8 - - - - - - -
02/06:00am 8.9 N 9 11 1012.2 - 0.8 - - - - - - -
02/05:30am 9.1 N 9 11 1012.6 - 0.8 - - - - - - -
02/05:00am 9.1 N 7 8 1012.8 - 0.8 - - - - - - -
02/04:30am 9.3 NNE 7 9 1013.3 - 0.8 - - - - - - -
02/04:00am 9.5 NNE 8 10 1013.5 - 0.8 - - - - - - -
02/03:30am 9.0 N 7 9 1014.4 - 0.8 - - - - - - -
02/03:00am 9.5 WNW 6 8 1015.1 - 0.6 Rain Cloudy 15 <0.5 1.0 - -
02/02:30am 9.5 NW 6 7 1015.1 - 0.4 - - - - - - -
02/02:00am 10.0 NW 7 8 1015.6 - 0.4 - - - - - - -
02/01:30am 9.9 NW 6 8 1015.1 - 0.4 - - - - - - -
02/01:00am 9.7 NNW 8 9 1015.2 - 0.4 - - - - - - -
02/12:30am 9.7 NW 7 9 1015.8 - 0.4 - - - - - - -
02/12:00am 9.3 NW 7 8 1015.7 - 0.4 - - - - - - -
 
Date/Time
EST
Temp

°C
Wind Pressure Rain
since 9am
mm
Weather Cloud Vis
km
Sea
Height
m
Swell
Dir
 
Speed
knots
Gust
knots
hPa Trend Height
m
Period
s
Dir
01/11:30pm 9.7 NW 7 8 1016.4 - 0.4 - - - - - - -
01/11:00pm 9.9 WNW 7 10 1015.9 - 0.4 - - - - - - -
01/10:30pm 10.0 WNW 8 9 1015.7 - 0.4 - - - - - - -
01/10:00pm 10.0 WNW 9 12 1016.1 - 0.4 - - - - - - -
01/09:30pm 10.1 W 9 13 1016.0 - 0.4 - - - - - - -
01/09:00pm 10.3 W 10 14 1016.4 - 0.4 Fine Cloudy 30 1 1.0 - -
01/08:30pm 10.5 W 14 16 1016.1 - 0.4 - - - - - - -
01/08:00pm 10.4 W 13 17 1016.1 - 0.4 - - - - - - -
01/07:30pm 10.3 W 13 16 1015.9 - 0.4 - - - - - - -
01/07:00pm 10.3 W 12 15 1015.4 - 0.4 - - - - - - -
01/06:30pm 10.3 W 14 18 1015.1 - 0.4 - - - - - - -
01/06:00pm 10.3 W 13 17 1015.0 - 0.4 - - - - - - -
01/05:30pm 10.2 W 13 15 1014.9 - 0.4 - - - - - - -
01/05:00pm 10.2 W 14 18 1014.6 - 0.4 - - - - - - -
01/04:30pm 10.8 WSW 19 23 1014.3 - 0.0 - - - - - - -
01/04:00pm 11.2 WSW 20 24 1013.8 - 0.0 - - - - - - -
01/03:30pm 11.4 SW 24 29 1013.4 - 0.0 - - - - - - -
01/03:00pm 11.7 SW 24 30 1012.6 - 0.0 Distant precip. Cloudy 10 1 1.0 - -
01/02:30pm 12.5 SW 27 32 1011.5 - 0.0 - - - - - - -
01/02:00pm 12.8 SW 28 32 1011.1 - 0.0 - - - - - - -
01/01:30pm 13.8 SW 29 36 1010.9 - 0.0 - - - - - - -
01/01:00pm 15.3 SW 26 35 1010.0 - 0.0 - - - - - - -
01/12:57pm 15.7 SW 23 33 1010.0 - 0.0 - - - - - - -
01/12:48pm 16.4 SW 15 23 1009.7 - 0.0 - - - - - - -
01/12:30pm 15.7 SSW 11 13 1009.5 - 0.0 - - - - - - -
01/12:00pm 16.7 N 8 11 1009.5 - 0.0 - - - - - - -
01/11:30am 17.4 NNE 11 16 1009.6 - 0.0 - - - - - - -
01/11:00am 16.5 NNE 13 17 1009.7 - 0.0 - - - - - - -
01/10:30am 16.3 NNE 15 19 1009.6 - 0.0 - - - - - - -
01/10:00am 15.4 NNE 15 19 1009.7 - 0.0 - - - - - - -
01/09:30am 14.2 NNE 14 17 1009.9 - 0.0 - - - - - - -
01/09:00am 12.9 NNE 14 18 1010.5 - 0.0 Fine Mostly cloudy 40 1 1.0 - -
01/08:30am 11.9 NNE 10 13 1010.6 - 0.0 - - - - - - -
01/08:00am 11.3 NNE 11 14 1010.4 - 0.0 - - - - - - -
01/07:30am 10.9 N 10 13 1010.4 - 0.0 - - - - - - -
01/07:00am 10.7 N 9 11 1011.1 - 0.0 - - - - - - -
01/06:30am 11.2 N 8 10 1011.4 - 0.0 - - - - - - -
01/06:00am 11.1 N 8 10 1011.5 - 0.0 - - - - - - -
01/05:30am 11.1 N 8 9 1011.7 - 0.0 - - - - - - -
01/05:00am 11.6 N 9 10 1011.7 - 0.0 - - - - - - -
01/04:30am 11.1 N 9 12 1011.6 - 0.0 - - - - - - -
01/04:00am 9.9 N 9 11 1011.6 - 0.0 - - - - - - -
01/03:30am 10.1 WNW 5 7 1011.9 - 0.0 - - - - - - -
01/03:00am 10.0 N 5 7 1012.4 - 0.0 Fine Cloudy 50 <0.5 1.0 - -
01/02:30am 10.6 N 9 12 1012.8 - 0.0 - - - - - - -
01/02:00am 11.0 NNE 9 11 1013.2 - 0.0 - - - - - - -
01/01:30am 11.4 NNE 15 19 1013.2 - 0.0 - - - - - - -
01/01:00am 11.8 NNE 16 21 1013.9 - 0.0 - - - - - - -
01/12:30am 12.1 NNE 13 16 1015.0 - 0.0 - - - - - - -
01/12:00am 12.2 NNE 19 24 1015.0 - 0.0 - - - - - - -
 
Date/Time
EST
Temp

°C
Wind Pressure Rain
since 9am
mm
Weather Cloud Vis
km
Sea
Height
m
Swell
Dir
 
Speed
knots
Gust
knots
hPa Trend Height
m
Period
s
Dir
31/11:30pm 12.3 NNE 18 24 1015.1 - 0.0 - - - - - - -
31/11:00pm 12.1 N 15 19 1016.1 - 0.0 - - - - - - -
31/10:30pm 11.9 N 15 19 1016.7 - 0.0 - - - - - - -
31/10:00pm 11.9 N 16 19 1017.1 - 0.0 - - - - - - -
31/09:30pm 11.8 N 15 19 1017.5 - 0.0 - - - - - - -
31/09:00pm 11.2 N 13 17 1017.9 - 0.0 Fine Partly cloudy 50 1 1.0 - -
31/08:30pm 10.5 N 11 15 1018.1 - 0.0 - - - - - - -
31/08:00pm 9.6 NNE 10 13 1018.2 - 0.0 - - - - - - -
31/07:30pm 9.4 NNE 9 12 1018.2 - 0.0 - - - - - - -
31/07:00pm 10.3 NNE 12 14 1018.2 - 0.0 - - - - - - -
31/06:30pm 10.4 NNE 9 12 1018.2 - 0.0 - - - - - - -
31/06:00pm 8.7 N 7 8 1018.3 - 0.0 - - - - - - -
31/05:30pm 11.0 NE 7 8 1018.3 - 0.0 - - - - - - -
31/05:00pm 11.2 S 3 5 1018.7 - 0.0 - - - - - - -
31/04:30pm 11.8 S 7 9 1018.6 - 0.0 - - - - - - -
31/04:00pm 12.2 SSW 11 13 1018.6 - 0.0 - - - - - - -
31/03:30pm 12.3 SSW 12 14 1018.7 - 0.0 - - - - - - -
31/03:00pm 12.7 SSW 14 16 1018.8 - 0.0 Fine Mostly clear 50 1 1.0 - -
31/02:30pm 12.8 SSW 12 15 1018.7 - 0.0 - - - - - - -
31/02:00pm 12.6 SSW 14 16 1019.1 - 0.0 - - - - - - -
31/01:30pm 12.8 SW 12 16 1019.4 - 0.0 - - - - - - -
31/01:00pm 12.7 SW 9 12 1019.7 - 0.0 - - - - - - -
31/12:30pm 13.1 WSW 11 13 1019.8 - 0.0 - - - - - - -
31/12:00pm 13.2 WSW 12 15 1020.4 - 0.0 - - - - - - -
31/11:30am 12.7 W 13 17 1020.8 - 0.0 - - - - - - -
31/11:00am 12.4 W 15 18 1021.0 - 0.0 - - - - - - -
31/10:30am 12.3 W 14 17 1021.0 - 0.0 - - - - - - -
31/10:00am 11.7 W 15 19 1020.7 - 0.0 - - - - - - -
31/09:30am 11.4 W 15 20 1020.4 - 0.0 - - - - - - -
31/09:00am 11.1 W 14 17 1020.2 - 0.0 Fine Mostly clear 30 1 1.0 - -
31/08:30am 10.9 W 15 19 1020.1 - 0.0 - - - - - - -
31/08:00am 10.6 W 16 20 1019.9 - 0.0 - - - - - - -
31/07:30am 10.3 W 14 18 1019.4 - 0.0 - - - - - - -
31/07:00am 10.4 W 14 18 1018.7 - 0.0 - - - - - - -
31/06:30am 11.1 W 15 19 1018.3 - 0.0 - - - - - - -
31/06:00am 11.5 WSW 19 24 1017.9 - 0.0 - - - - - - -
31/05:30am 11.6 WSW 21 26 1017.3 - 0.0 - - - - - - -
31/05:00am 11.7 WSW 25 31 1016.9 - 0.0 - - - - - - -
31/04:30am 11.9 WSW 25 32 1016.5 - 0.0 - - - - - - -
31/04:00am 12.1 WSW 23 31 1016.1 - 0.0 - - - - - - -
31/03:30am 12.1 WSW 25 32 1015.7 - 0.0 - - - - - - -
31/03:00am 12.4 WSW 27 34 1015.2 - 0.0 Fine Partly cloudy 40 1 2.0 - -
31/02:30am 13.6 SW 22 28 1015.0 - 0.0 - - - - - - -
31/02:22am 13.4 WSW 17 27 1015.1 - 0.0 - - - - - - -
31/02:00am 13.1 W 11 19 1014.9 - 0.0 - - - - - - -
31/01:30am 13.4 WNW 9 13 1014.8 - 0.0 - - - - - - -
31/01:00am 12.4 W 7 10 1014.3 - 0.0 - - - - - - -
31/12:30am 12.5 W 7 9 1014.0 - 0.0 - - - - - - -
31/12:00am 12.7 W 9 11 1013.9 - 0.0 - - - - - - -
 
Date/Time
EST
Temp

°C
Wind Pressure Rain
since 9am
mm
Weather Cloud Vis
km
Sea
Height
m
Swell
Dir
 
Speed
knots
Gust
knots
hPa Trend Height
m
Period
s
Dir
30/11:30pm 12.6 W 8 9 1013.6 - 0.0 - - - - - - -
30/11:00pm 12.9 WNW 3 5 1013.4 - 0.0 - - - - - - -
30/10:30pm 13.1 N 3 5 1013.2 - 0.0 - - - - - - -
30/10:00pm 13.3 N 6 8 1012.7 - 0.0 - - - - - - -
30/09:30pm 13.2 NNE 9 12 1012.7 - 0.0 - - - - - - -
30/09:00pm 12.8 NNE 9 10 1012.6 - 0.0 Fine Cloudy 40 <0.5 2.0 - -
30/08:30pm 12.1 N 11 14 1012.6 - 0.0 - - - - - - -
30/08:00pm 11.3 N 11 14 1012.5 - 0.0 - - - - - - -
30/07:30pm 11.4 N 12 16 1012.3 - 0.0 - - - - - - -
30/07:00pm 11.4 N 12 14 1013.0 - 0.0 - - - - - - -
30/06:30pm 11.6 N 14 17 1013.2 - 0.0 - - - - - - -
30/06:00pm 11.5 NNE 12 15 1013.8 - 0.0 - - - - - - -
30/05:30pm 11.6 N 13 16 1013.5 - 0.0 - - - - - - -
30/05:00pm 12.1 NNE 17 20 1013.5 - 0.0 - - - - - - -
30/04:30pm 12.3 NNE 18 22 1013.9 - 0.0 - - - - - - -
30/04:00pm 12.8 NNE 13 16 1014.4 - 0.0 - - - - - - -
30/03:30pm 12.3 NNE 14 17 1014.8 - 0.0 - - - - - - -
30/03:00pm 12.6 NNE 14 17 1014.8 - 0.0 Fine Mostly cloudy 40 <0.5 2.0 - -

Other Formats:

Comma delimited format used in spreadsheet applications
http://www.bom.gov.au/fwo/IDN60701/IDN60701.94933.axf

JavaScript Object Notation format (JSON) in row-major order
http://www.bom.gov.au/fwo/IDN60701/IDN60701.94933.json